sensor_id;sensor_type;location;lat;lon;timestamp;pressure;altitude;pressure_sealevel;temperature;humidity
54718;BME280;40615;40.736;-74.480;2022-12-16T00:01:26;100712.94;;;12.78;42.58
54718;BME280;40615;40.736;-74.480;2022-12-16T00:03:27;100719.03;;;12.78;42.72
54718;BME280;40615;40.736;-74.480;2022-12-16T00:05:28;100718.22;;;12.76;42.85
54718;BME280;40615;40.736;-74.480;2022-12-16T00:07:29;100723.38;;;12.79;42.82
54718;BME280;40615;40.736;-74.480;2022-12-16T00:09:30;100718.97;;;12.80;42.68
54718;BME280;40615;40.736;-74.480;2022-12-16T00:11:31;100733.88;;;12.78;42.68
54718;BME280;40615;40.736;-74.480;2022-12-16T00:13:33;100733.88;;;12.78;42.82
54718;BME280;40615;40.736;-74.480;2022-12-16T00:15:36;100739.19;;;12.74;42.61
54718;BME280;40615;40.736;-74.480;2022-12-16T00:17:37;100748.00;;;12.72;42.85
54718;BME280;40615;40.736;-74.480;2022-12-16T00:19:39;100739.16;;;12.76;42.63
54718;BME280;40615;40.736;-74.480;2022-12-16T00:21:39;100733.91;;;12.76;42.81
54718;BME280;40615;40.736;-74.480;2022-12-16T00:23:40;100748.63;;;12.79;42.69
54718;BME280;40615;40.736;-74.480;2022-12-16T00:25:43;100737.31;;;12.78;42.79
54718;BME280;40615;40.736;-74.480;2022-12-16T00:27:44;100743.41;;;12.79;42.54
54718;BME280;40615;40.736;-74.480;2022-12-16T00:29:45;100754.03;;;12.74;42.60
54718;BME280;40615;40.736;-74.480;2022-12-16T00:31:46;100750.34;;;12.80;42.66
54718;BME280;40615;40.736;-74.480;2022-12-16T00:33:47;100748.75;;;12.76;42.57
54718;BME280;40615;40.736;-74.480;2022-12-16T00:35:48;100752.13;;;12.79;42.54
54718;BME280;40615;40.736;-74.480;2022-12-16T00:37:49;100739.84;;;12.81;42.50
54718;BME280;40615;40.736;-74.480;2022-12-16T00:39:50;100738.09;;;12.82;42.67
54718;BME280;40615;40.736;-74.480;2022-12-16T00:41:51;100738.09;;;12.82;42.64
54718;BME280;40615;40.736;-74.480;2022-12-16T00:43:52;100740.69;;;12.82;42.58
54718;BME280;40615;40.736;-74.480;2022-12-16T00:45:53;100743.31;;;12.82;42.55
54718;BME280;40615;40.736;-74.480;2022-12-16T00:47:53;100738.09;;;12.82;42.60
54718;BME280;40615;40.736;-74.480;2022-12-16T00:49:54;100750.25;;;12.83;42.60
54718;BME280;40615;40.736;-74.480;2022-12-16T00:51:55;100758.94;;;12.83;42.38
54718;BME280;40615;40.736;-74.480;2022-12-16T00:53:56;100748.53;;;12.82;42.49
54718;BME280;40615;40.736;-74.480;2022-12-16T00:56:15;100752.94;;;12.81;42.44
54718;BME280;40615;40.736;-74.480;2022-12-16T00:58:17;100738.19;;;12.79;42.53
54718;BME280;40615;40.736;-74.480;2022-12-16T01:00:18;100739.69;;;12.86;42.66
54718;BME280;40615;40.736;-74.480;2022-12-16T01:02:19;100748.44;;;12.85;42.65
54718;BME280;40615;40.736;-74.480;2022-12-16T01:04:20;100742.34;;;12.84;42.79
54718;BME280;40615;40.736;-74.480;2022-12-16T01:06:21;100738.03;;;12.83;42.66
54718;BME280;40615;40.736;-74.480;2022-12-16T01:08:22;100726.72;;;12.83;42.76
54718;BME280;40615;40.736;-74.480;2022-12-16T01:10:24;100713.66;;;12.83;42.59
54718;BME280;40615;40.736;-74.480;2022-12-16T01:12:25;100720.63;;;12.82;42.59
54718;BME280;40615;40.736;-74.480;2022-12-16T01:14:26;100720.63;;;12.82;42.71
54718;BME280;40615;40.736;-74.480;2022-12-16T01:16:27;100708.44;;;12.83;42.51
54718;BME280;40615;40.736;-74.480;2022-12-16T01:18:28;100700.59;;;12.83;42.71
54718;BME280;40615;40.736;-74.480;2022-12-16T01:20:31;100684.16;;;12.79;42.75
54718;BME280;40615;40.736;-74.480;2022-12-16T01:22:33;100661.59;;;12.75;42.68
54718;BME280;40615;40.736;-74.480;2022-12-16T01:24:34;100658.78;;;12.81;42.57
54718;BME280;40615;40.736;-74.480;2022-12-16T01:26:35;100658.78;;;12.81;42.60
54718;BME280;40615;40.736;-74.480;2022-12-16T01:28:36;100657.16;;;12.77;42.67
54718;BME280;40615;40.736;-74.480;2022-12-16T01:30:37;100665.84;;;12.79;42.67
54718;BME280;40615;40.736;-74.480;2022-12-16T01:32:38;100650.97;;;12.81;42.59
54718;BME280;40615;40.736;-74.480;2022-12-16T01:34:39;100651.84;;;12.80;42.62
54718;BME280;40615;40.736;-74.480;2022-12-16T01:36:40;100651.84;;;12.80;42.66
54718;BME280;40615;40.736;-74.480;2022-12-16T01:38:42;100647.47;;;12.81;42.64
54718;BME280;40615;40.736;-74.480;2022-12-16T01:40:44;100626.53;;;12.81;42.61
54718;BME280;40615;40.736;-74.480;2022-12-16T01:42:44;100619.69;;;12.78;42.47
54718;BME280;40615;40.736;-74.480;2022-12-16T01:44:47;100604.75;;;12.82;42.63
54718;BME280;40615;40.736;-74.480;2022-12-16T01:46:51;100614.34;;;12.81;42.66
54718;BME280;40615;40.736;-74.480;2022-12-16T01:49:13;100611.00;;;12.78;42.53
54718;BME280;40615;40.736;-74.480;2022-12-16T01:51:23;100616.09;;;12.81;42.56
54718;BME280;40615;40.736;-74.480;2022-12-16T01:53:25;100623.00;;;12.83;42.89
54718;BME280;40615;40.736;-74.480;2022-12-16T01:55:34;100629.06;;;12.84;42.65
54718;BME280;40615;40.736;-74.480;2022-12-16T01:57:50;100621.28;;;12.82;42.89
54718;BME280;40615;40.736;-74.480;2022-12-16T01:59:53;100598.81;;;12.77;42.63
54718;BME280;40615;40.736;-74.480;2022-12-16T02:01:55;100605.59;;;12.82;42.84
54718;BME280;40615;40.736;-74.480;2022-12-16T02:04:00;100589.06;;;12.82;42.60
54718;BME280;40615;40.736;-74.480;2022-12-16T02:06:04;100595.13;;;12.82;42.66
54718;BME280;40615;40.736;-74.480;2022-12-16T02:10:10;100596.91;;;12.82;42.55
54718;BME280;40615;40.736;-74.480;2022-12-16T02:17:27;100588.06;;;12.84;42.47
54718;BME280;40615;40.736;-74.480;2022-12-16T02:24:31;100548.84;;;12.84;42.53
54718;BME280;40615;40.736;-74.480;2022-12-16T02:26:58;100535.72;;;12.86;42.61
54718;BME280;40615;40.736;-74.480;2022-12-16T02:32:05;100519.25;;;12.84;42.48
54718;BME280;40615;40.736;-74.480;2022-12-16T02:39:21;100533.13;;;12.86;42.56
54718;BME280;40615;40.736;-74.480;2022-12-16T02:41:36;100528.06;;;12.81;42.66
54718;BME280;40615;40.736;-74.480;2022-12-16T02:45:58;100512.19;;;12.86;42.85
54718;BME280;40615;40.736;-74.480;2022-12-16T02:47:59;100525.22;;;12.87;42.75
54718;BME280;40615;40.736;-74.480;2022-12-16T02:50:00;100526.94;;;12.88;42.92
54718;BME280;40615;40.736;-74.480;2022-12-16T02:52:01;100531.28;;;12.88;42.94
54718;BME280;40615;40.736;-74.480;2022-12-16T02:54:03;100532.16;;;12.88;42.91
54718;BME280;40615;40.736;-74.480;2022-12-16T02:56:12;100523.41;;;12.89;42.61
54718;BME280;40615;40.736;-74.480;2022-12-16T02:58:29;100518.22;;;12.88;42.89
54718;BME280;40615;40.736;-74.480;2022-12-16T03:01:05;100513.97;;;12.85;42.67
54718;BME280;40615;40.736;-74.480;2022-12-16T03:03:15;100523.44;;;12.88;42.56
54718;BME280;40615;40.736;-74.480;2022-12-16T03:05:32;100535.72;;;12.86;42.86
54718;BME280;40615;40.736;-74.480;2022-12-16T03:07:37;100535.69;;;12.87;42.64
54718;BME280;40615;40.736;-74.480;2022-12-16T03:09:40;100531.44;;;12.85;42.84
54718;BME280;40615;40.736;-74.480;2022-12-16T03:11:43;100514.31;;;12.76;43.02
54718;BME280;40615;40.736;-74.480;2022-12-16T03:13:49;100523.69;;;12.82;42.64
54718;BME280;40615;40.736;-74.480;2022-12-16T03:15:52;100520.19;;;12.83;42.97
54718;BME280;40615;40.736;-74.480;2022-12-16T03:17:54;100509.81;;;12.80;42.81
54718;BME280;40615;40.736;-74.480;2022-12-16T03:20:06;100511.41;;;12.84;42.73
54718;BME280;40615;40.736;-74.480;2022-12-16T03:22:12;100499.13;;;12.86;42.71
54718;BME280;40615;40.736;-74.480;2022-12-16T03:24:14;100472.13;;;12.85;42.88
54718;BME280;40615;40.736;-74.480;2022-12-16T03:26:20;100472.97;;;12.86;42.71
54718;BME280;40615;40.736;-74.480;2022-12-16T03:28:46;100466.06;;;12.85;42.80
54718;BME280;40615;40.736;-74.480;2022-12-16T03:30:56;100459.06;;;12.85;42.50
54718;BME280;40615;40.736;-74.480;2022-12-16T03:33:09;100452.06;;;12.86;42.55
54718;BME280;40615;40.736;-74.480;2022-12-16T03:37:17;100436.50;;;12.83;42.63
54718;BME280;40615;40.736;-74.480;2022-12-16T03:39:21;100437.31;;;12.85;42.80
54718;BME280;40615;40.736;-74.480;2022-12-16T03:41:23;100420.81;;;12.83;42.81
54718;BME280;40615;40.736;-74.480;2022-12-16T03:43:26;100423.44;;;12.83;43.22
54718;BME280;40615;40.736;-74.480;2022-12-16T03:45:31;100425.97;;;12.84;42.87
54718;BME280;40615;40.736;-74.480;2022-12-16T03:47:36;100419.00;;;12.85;42.69
54718;BME280;40615;40.736;-74.480;2022-12-16T03:49:37;100420.63;;;12.87;42.70
54718;BME280;40615;40.736;-74.480;2022-12-16T03:51:38;100394.69;;;12.83;43.06
54718;BME280;40615;40.736;-74.480;2022-12-16T03:53:39;100394.53;;;12.86;43.03
54718;BME280;40615;40.736;-74.480;2022-12-16T03:55:40;100376.19;;;12.87;42.85
54718;BME280;40615;40.736;-74.480;2022-12-16T03:57:41;100368.41;;;12.86;42.94
54718;BME280;40615;40.736;-74.480;2022-12-16T03:59:42;100353.50;;;12.88;42.76
54718;BME280;40615;40.736;-74.480;2022-12-16T04:01:43;100344.03;;;12.85;43.04
54718;BME280;40615;40.736;-74.480;2022-12-16T04:03:44;100339.53;;;12.89;42.67
54718;BME280;40615;40.736;-74.480;2022-12-16T04:05:44;100337.75;;;12.89;42.86
54718;BME280;40615;40.736;-74.480;2022-12-16T04:07:46;100338.63;;;12.90;42.79
54718;BME280;40615;40.736;-74.480;2022-12-16T04:09:48;100339.47;;;12.90;42.75
54718;BME280;40615;40.736;-74.480;2022-12-16T04:11:49;100329.91;;;12.89;42.91
54718;BME280;40615;40.736;-74.480;2022-12-16T04:14:08;100339.41;;;12.92;42.60
54718;BME280;40615;40.736;-74.480;2022-12-16T04:16:28;100333.38;;;12.90;42.60
54718;BME280;40615;40.736;-74.480;2022-12-16T04:18:48;100325.53;;;12.90;42.68
54718;BME280;40615;40.736;-74.480;2022-12-16T04:21:08;100324.72;;;12.88;42.84
54718;BME280;40615;40.736;-74.480;2022-12-16T04:23:29;100319.38;;;12.91;42.87
54718;BME280;40615;40.736;-74.480;2022-12-16T04:25:50;100312.38;;;12.91;42.70
54718;BME280;40615;40.736;-74.480;2022-12-16T04:27:51;100297.63;;;12.90;42.87
54718;BME280;40615;40.736;-74.480;2022-12-16T04:29:52;100295.91;;;12.89;42.67
54718;BME280;40615;40.736;-74.480;2022-12-16T04:32:19;100288.00;;;12.91;42.69
54718;BME280;40615;40.736;-74.480;2022-12-16T04:34:20;100272.31;;;12.91;42.65
54718;BME280;40615;40.736;-74.480;2022-12-16T04:36:30;100262.78;;;12.90;42.99
54718;BME280;40615;40.736;-74.480;2022-12-16T04:38:49;100265.41;;;12.90;42.78
54718;BME280;40615;40.736;-74.480;2022-12-16T04:41:09;100235.94;;;12.86;43.01
54718;BME280;40615;40.736;-74.480;2022-12-16T04:43:28;100253.06;;;12.93;42.82
54718;BME280;40615;40.736;-74.480;2022-12-16T04:45:47;100242.59;;;12.93;42.92
54718;BME280;40615;40.736;-74.480;2022-12-16T04:48:07;100224.28;;;12.93;42.95
54718;BME280;40615;40.736;-74.480;2022-12-16T04:50:26;100233.03;;;12.92;43.08
54718;BME280;40615;40.736;-74.480;2022-12-16T04:52:49;100227.81;;;12.92;43.08
54718;BME280;40615;40.736;-74.480;2022-12-16T04:55:09;100233.03;;;12.92;42.91
54718;BME280;40615;40.736;-74.480;2022-12-16T04:57:30;100219.19;;;12.90;43.04
54718;BME280;40615;40.736;-74.480;2022-12-16T04:59:51;100211.34;;;12.90;42.84
54718;BME280;40615;40.736;-74.480;2022-12-16T05:02:10;100203.63;;;12.87;42.87
54718;BME280;40615;40.736;-74.480;2022-12-16T05:04:29;100193.03;;;12.90;42.98
54718;BME280;40615;40.736;-74.480;2022-12-16T05:06:48;100200.88;;;12.90;42.87
54718;BME280;40615;40.736;-74.480;2022-12-16T05:09:08;100192.97;;;12.92;42.83
54718;BME280;40615;40.736;-74.480;2022-12-16T05:11:27;100199.09;;;12.91;43.01
54718;BME280;40615;40.736;-74.480;2022-12-16T05:13:46;100191.25;;;12.91;43.01
54718;BME280;40615;40.736;-74.480;2022-12-16T05:16:05;100173.91;;;12.90;42.74
54718;BME280;40615;40.736;-74.480;2022-12-16T05:18:25;100172.13;;;12.90;42.93
54718;BME280;40615;40.736;-74.480;2022-12-16T05:20:44;100165.19;;;12.89;42.70
54718;BME280;40615;40.736;-74.480;2022-12-16T05:23:03;100164.34;;;12.89;43.10
54718;BME280;40615;40.736;-74.480;2022-12-16T05:25:22;100148.66;;;12.89;42.76
54718;BME280;40615;40.736;-74.480;2022-12-16T05:27:41;100134.84;;;12.85;42.70
54718;BME280;40615;40.736;-74.480;2022-12-16T05:30:01;100134.75;;;12.88;42.93
54718;BME280;40615;40.736;-74.480;2022-12-16T05:32:20;100139.19;;;12.86;42.82
54718;BME280;40615;40.736;-74.480;2022-12-16T05:34:39;100132.97;;;12.89;42.82
54718;BME280;40615;40.736;-74.480;2022-12-16T05:36:58;100135.56;;;12.89;43.05
54718;BME280;40615;40.736;-74.480;2022-12-16T05:39:17;100132.91;;;12.90;42.95
54718;BME280;40615;40.736;-74.480;2022-12-16T05:41:37;100130.34;;;12.89;43.20
54718;BME280;40615;40.736;-74.480;2022-12-16T05:43:57;100117.41;;;12.86;43.21
54718;BME280;40615;40.736;-74.480;2022-12-16T05:46:16;100134.69;;;12.90;43.09
54718;BME280;40615;40.736;-74.480;2022-12-16T05:48:35;100113.75;;;12.90;43.02
54718;BME280;40615;40.736;-74.480;2022-12-16T05:50:55;100101.47;;;12.92;43.17
54718;BME280;40615;40.736;-74.480;2022-12-16T05:53:14;100106.69;;;12.92;43.02
54718;BME280;40615;40.736;-74.480;2022-12-16T05:55:34;100107.53;;;12.92;42.84
54718;BME280;40615;40.736;-74.480;2022-12-16T05:57:53;100114.47;;;12.93;43.22
54718;BME280;40615;40.736;-74.480;2022-12-16T06:00:13;100117.09;;;12.93;43.09
54718;BME280;40615;40.736;-74.480;2022-12-16T06:02:32;100117.09;;;12.93;43.15
54718;BME280;40615;40.736;-74.480;2022-12-16T06:04:52;100111.88;;;12.93;42.89
54718;BME280;40615;40.736;-74.480;2022-12-16T06:07:11;100104.00;;;12.93;42.95
54718;BME280;40615;40.736;-74.480;2022-12-16T06:09:31;100104.84;;;12.94;43.13
54718;BME280;40615;40.736;-74.480;2022-12-16T06:11:50;100103.16;;;12.93;42.98
54718;BME280;40615;40.736;-74.480;2022-12-16T06:14:10;100109.25;;;12.93;42.92
54718;BME280;40615;40.736;-74.480;2022-12-16T06:16:29;100099.63;;;12.94;43.06
54718;BME280;40615;40.736;-74.480;2022-12-16T06:18:48;100086.50;;;12.96;43.07
54718;BME280;40615;40.736;-74.480;2022-12-16T06:21:08;100079.56;;;12.94;42.88
54718;BME280;40615;40.736;-74.480;2022-12-16T06:23:27;100067.34;;;12.95;42.85
54718;BME280;40615;40.736;-74.480;2022-12-16T06:25:47;100068.19;;;12.96;42.91
54718;BME280;40615;40.736;-74.480;2022-12-16T06:28:06;100066.47;;;12.94;43.13
54718;BME280;40615;40.736;-74.480;2022-12-16T06:30:42;100063.91;;;12.93;42.97
54718;BME280;40615;40.736;-74.480;2022-12-16T06:33:01;100062.03;;;12.97;43.18
54718;BME280;40615;40.736;-74.480;2022-12-16T06:35:21;100061.19;;;12.96;43.11
54718;BME280;40615;40.736;-74.480;2022-12-16T06:37:40;100074.19;;;12.98;43.14
54718;BME280;40615;40.736;-74.480;2022-12-16T06:39:59;100085.50;;;12.98;43.12
54718;BME280;40615;40.736;-74.480;2022-12-16T06:42:18;100070.69;;;12.99;43.34
54718;BME280;40615;40.736;-74.480;2022-12-16T06:44:38;100066.28;;;12.99;43.12
54718;BME280;40615;40.736;-74.480;2022-12-16T06:46:57;100054.13;;;12.98;43.15
54718;BME280;40615;40.736;-74.480;2022-12-16T06:49:16;100061.97;;;12.98;42.98
54718;BME280;40615;40.736;-74.480;2022-12-16T06:51:35;100057.72;;;12.96;43.19
54718;BME280;40615;40.736;-74.480;2022-12-16T06:53:54;100061.19;;;12.96;43.06
54718;BME280;40615;40.736;-74.480;2022-12-16T06:56:14;100068.19;;;12.96;43.19
54718;BME280;40615;40.736;-74.480;2022-12-16T06:58:33;100051.91;;;12.89;43.18
54718;BME280;40615;40.736;-74.480;2022-12-16T07:00:52;100044.84;;;12.91;43.04
54718;BME280;40615;40.736;-74.480;2022-12-16T07:03:11;100037.72;;;12.94;43.30
54718;BME280;40615;40.736;-74.480;2022-12-16T07:05:30;100029.88;;;12.94;42.97
54718;BME280;40615;40.736;-74.480;2022-12-16T07:07:51;100024.63;;;12.94;43.11
54718;BME280;40615;40.736;-74.480;2022-12-16T07:10:10;100031.66;;;12.94;43.01
54718;BME280;40615;40.736;-74.480;2022-12-16T07:12:29;100025.69;;;12.90;42.93
54718;BME280;40615;40.736;-74.480;2022-12-16T07:14:49;100027.31;;;12.93;43.02
54718;BME280;40615;40.736;-74.480;2022-12-16T07:17:08;100028.13;;;12.95;43.01
54718;BME280;40615;40.736;-74.480;2022-12-16T07:19:28;100015.97;;;12.94;42.92
54718;BME280;40615;40.736;-74.480;2022-12-16T07:21:47;100022.91;;;12.95;43.04
54718;BME280;40615;40.736;-74.480;2022-12-16T07:24:06;100001.88;;;12.97;43.20
54718;BME280;40615;40.736;-74.480;2022-12-16T07:26:26;100004.59;;;12.95;42.93
54718;BME280;40615;40.736;-74.480;2022-12-16T07:28:45;100008.94;;;12.94;42.96
54718;BME280;40615;40.736;-74.480;2022-12-16T07:31:05;99995.22;;;12.89;43.34
54718;BME280;40615;40.736;-74.480;2022-12-16T07:33:24;100001.97;;;12.95;43.09
54718;BME280;40615;40.736;-74.480;2022-12-16T07:35:44;99997.72;;;12.92;43.39
54718;BME280;40615;40.736;-74.480;2022-12-16T07:38:03;99991.41;;;12.97;43.07
54718;BME280;40615;40.736;-74.480;2022-12-16T07:40:22;99985.47;;;12.93;43.31
54718;BME280;40615;40.736;-74.480;2022-12-16T07:42:42;100000.97;;;12.98;43.03
54718;BME280;40615;40.736;-74.480;2022-12-16T07:45:04;99981.78;;;12.99;43.09
54718;BME280;40615;40.736;-74.480;2022-12-16T07:47:24;99981.78;;;12.99;43.04
54718;BME280;40615;40.736;-74.480;2022-12-16T07:49:43;99973.13;;;12.97;43.28
54718;BME280;40615;40.736;-74.480;2022-12-16T07:52:02;99967.88;;;12.97;43.22
54718;BME280;40615;40.736;-74.480;2022-12-16T07:54:22;99969.59;;;12.98;43.38
54718;BME280;40615;40.736;-74.480;2022-12-16T07:56:41;99965.22;;;12.98;43.12
54718;BME280;40615;40.736;-74.480;2022-12-16T07:59:01;99971.38;;;12.97;43.17
54718;BME280;40615;40.736;-74.480;2022-12-16T08:01:20;99957.44;;;12.97;43.39
54718;BME280;40615;40.736;-74.480;2022-12-16T08:03:40;99953.13;;;12.96;43.27
54718;BME280;40615;40.736;-74.480;2022-12-16T08:05:59;99933.41;;;12.88;43.40
54718;BME280;40615;40.736;-74.480;2022-12-16T08:08:19;99953.06;;;12.97;42.99
54718;BME280;40615;40.736;-74.480;2022-12-16T08:10:38;99931.06;;;12.82;43.29
54718;BME280;40615;40.736;-74.480;2022-12-16T08:13:09;99946.91;;;12.98;43.05
54718;BME280;40615;40.736;-74.480;2022-12-16T08:15:27;99929.53;;;12.97;43.18
54718;BME280;40615;40.736;-74.480;2022-12-16T08:17:48;99936.50;;;12.97;43.20
54718;BME280;40615;40.736;-74.480;2022-12-16T08:20:08;99936.50;;;12.97;43.32
54718;BME280;40615;40.736;-74.480;2022-12-16T08:22:28;99934.97;;;12.92;43.06
54718;BME280;40615;40.736;-74.480;2022-12-16T08:24:47;99941.75;;;12.97;43.28
54718;BME280;40615;40.736;-74.480;2022-12-16T08:27:06;99924.56;;;12.91;43.14
54718;BME280;40615;40.736;-74.480;2022-12-16T08:29:26;99929.59;;;12.96;43.07
54718;BME280;40615;40.736;-74.480;2022-12-16T08:31:45;99910.59;;;12.92;43.46
54718;BME280;40615;40.736;-74.480;2022-12-16T08:34:04;99930.50;;;12.94;43.44
54718;BME280;40615;40.736;-74.480;2022-12-16T08:36:23;99909.72;;;12.91;43.56
54718;BME280;40615;40.736;-74.480;2022-12-16T08:38:43;99915.69;;;12.95;43.27
54718;BME280;40615;40.736;-74.480;2022-12-16T08:41:02;99915.69;;;12.95;43.48
54718;BME280;40615;40.736;-74.480;2022-12-16T08:43:21;99910.47;;;12.95;43.41
54718;BME280;40615;40.736;-74.480;2022-12-16T08:45:41;99908.81;;;12.92;43.39
54718;BME280;40615;40.736;-74.480;2022-12-16T08:48:01;99894.97;;;12.90;43.25
54718;BME280;40615;40.736;-74.480;2022-12-16T08:50:20;99912.22;;;12.94;43.34
54718;BME280;40615;40.736;-74.480;2022-12-16T08:52:39;99908.75;;;12.94;43.30
54718;BME280;40615;40.736;-74.480;2022-12-16T08:54:59;99892.22;;;12.93;43.22
54718;BME280;40615;40.736;-74.480;2022-12-16T08:57:18;99893.97;;;12.93;43.22
54718;BME280;40615;40.736;-74.480;2022-12-16T08:59:38;99873.94;;;12.93;43.24
54718;BME280;40615;40.736;-74.480;2022-12-16T09:01:57;99873.94;;;12.93;43.34
54718;BME280;40615;40.736;-74.480;2022-12-16T09:04:16;99865.38;;;12.90;43.26
54718;BME280;40615;40.736;-74.480;2022-12-16T09:06:36;99869.81;;;12.88;43.18
54718;BME280;40615;40.736;-74.480;2022-12-16T09:08:55;99888.75;;;12.93;43.16
54718;BME280;40615;40.736;-74.480;2022-12-16T09:11:15;99879.34;;;12.89;43.25
54718;BME280;40615;40.736;-74.480;2022-12-16T09:13:34;99887.84;;;12.94;43.56
54718;BME280;40615;40.736;-74.480;2022-12-16T09:15:53;99870.38;;;12.94;43.21
54718;BME280;40615;40.736;-74.480;2022-12-16T09:18:13;99880.84;;;12.94;43.63
54718;BME280;40615;40.736;-74.480;2022-12-16T09:20:32;99878.16;;;12.96;43.24
54718;BME280;40615;40.736;-74.480;2022-12-16T09:22:52;99869.41;;;12.97;43.36
54718;BME280;40615;40.736;-74.480;2022-12-16T09:25:11;99860.69;;;12.97;43.27
54718;BME280;40615;40.736;-74.480;2022-12-16T09:27:31;99855.47;;;12.97;43.63
54718;BME280;40615;40.736;-74.480;2022-12-16T09:29:50;99844.16;;;12.96;43.40
54718;BME280;40615;40.736;-74.480;2022-12-16T09:32:10;99831.78;;;13.00;43.41
54718;BME280;40615;40.736;-74.480;2022-12-16T09:34:29;99827.38;;;13.00;43.52
54718;BME280;40615;40.736;-74.480;2022-12-16T09:36:48;99829.09;;;13.01;43.32
54718;BME280;40615;40.736;-74.480;2022-12-16T09:39:08;99832.56;;;13.02;43.55
54718;BME280;40615;40.736;-74.480;2022-12-16T09:41:35;99827.31;;;13.02;43.57
54718;BME280;40615;40.736;-74.480;2022-12-16T09:44:09;99807.34;;;13.01;43.38
54718;BME280;40615;40.736;-74.480;2022-12-16T09:49:05;99809.88;;;13.02;43.04
54718;BME280;40615;40.736;-74.480;2022-12-16T09:51:31;99800.25;;;13.03;43.32
54718;BME280;40615;40.736;-74.480;2022-12-16T09:53:53;99790.78;;;13.00;43.44
54718;BME280;40615;40.736;-74.480;2022-12-16T09:56:20;99794.19;;;13.02;43.33
54718;BME280;40615;40.736;-74.480;2022-12-16T09:58:50;99794.19;;;13.02;43.34
54718;BME280;40615;40.736;-74.480;2022-12-16T10:01:12;99793.25;;;13.03;43.52
54718;BME280;40615;40.736;-74.480;2022-12-16T10:03:41;99787.25;;;13.01;43.44
54718;BME280;40615;40.736;-74.480;2022-12-16T10:06:11;99777.63;;;13.02;43.29
54718;BME280;40615;40.736;-74.480;2022-12-16T10:09:44;99762.81;;;13.02;43.48
54718;BME280;40615;40.736;-74.480;2022-12-16T10:11:52;99767.88;;;13.05;43.32
54718;BME280;40615;40.736;-74.480;2022-12-16T10:14:19;99753.13;;;13.04;43.47
54718;BME280;40615;40.736;-74.480;2022-12-16T10:22:22;99772.19;;;13.06;43.52
54718;BME280;40615;40.736;-74.480;2022-12-16T10:27:34;99776.41;;;13.09;43.35
54718;BME280;40615;40.736;-74.480;2022-12-16T10:30:02;99779.91;;;13.09;43.74
54718;BME280;40615;40.736;-74.480;2022-12-16T10:32:32;99765.13;;;13.08;43.19
54718;BME280;40615;40.736;-74.480;2022-12-16T10:34:53;99760.78;;;13.07;43.52
54718;BME280;40615;40.736;-74.480;2022-12-16T10:37:36;99751.34;;;13.05;43.21
54718;BME280;40615;40.736;-74.480;2022-12-16T10:39:58;99746.25;;;13.02;43.41
54718;BME280;40615;40.736;-74.480;2022-12-16T10:42:23;99743.50;;;13.05;43.38
54718;BME280;40615;40.736;-74.480;2022-12-16T10:44:51;99733.03;;;13.05;43.18
54718;BME280;40615;40.736;-74.480;2022-12-16T10:47:11;99737.44;;;13.04;43.75
54718;BME280;40615;40.736;-74.480;2022-12-16T10:49:30;99730.75;;;12.99;43.45
54718;BME280;40615;40.736;-74.480;2022-12-16T10:51:51;99737.50;;;13.03;43.34
54718;BME280;40615;40.736;-74.480;2022-12-16T10:57:02;99721.88;;;13.01;43.19
54718;BME280;40615;40.736;-74.480;2022-12-16T10:59:23;99711.34;;;13.03;43.48
54718;BME280;40615;40.736;-74.480;2022-12-16T11:01:59;99707.91;;;13.02;43.46
54718;BME280;40615;40.736;-74.480;2022-12-16T11:04:36;99705.38;;;13.01;43.53
54718;BME280;40615;40.736;-74.480;2022-12-16T11:06:56;99703.59;;;13.01;43.65
54718;BME280;40615;40.736;-74.480;2022-12-16T11:09:32;99698.44;;;13.00;43.44
54718;BME280;40615;40.736;-74.480;2022-12-16T11:11:52;99674.00;;;12.83;43.72
54718;BME280;40615;40.736;-74.480;2022-12-16T11:14:23;99700.06;;;13.02;43.49
54718;BME280;40615;40.736;-74.480;2022-12-16T11:16:43;99695.75;;;13.01;43.77
54718;BME280;40615;40.736;-74.480;2022-12-16T11:19:03;99686.13;;;13.02;43.95
54718;BME280;40615;40.736;-74.480;2022-12-16T11:21:23;99688.72;;;13.02;43.92
54718;BME280;40615;40.736;-74.480;2022-12-16T11:23:42;99681.75;;;13.02;43.80
54718;BME280;40615;40.736;-74.480;2022-12-16T11:26:12;99687.00;;;13.02;43.58
54718;BME280;40615;40.736;-74.480;2022-12-16T11:28:32;99684.44;;;13.01;43.70
54718;BME280;40615;40.736;-74.480;2022-12-16T11:30:57;99668.69;;;13.02;43.56
54718;BME280;40615;40.736;-74.480;2022-12-16T11:33:23;99669.53;;;13.03;43.82
54718;BME280;40615;40.736;-74.480;2022-12-16T11:35:48;99662.59;;;13.02;43.59
54718;BME280;40615;40.736;-74.480;2022-12-16T11:38:19;99657.34;;;13.02;43.52
54718;BME280;40615;40.736;-74.480;2022-12-16T11:40:39;99646.13;;;13.00;43.53
54718;BME280;40615;40.736;-74.480;2022-12-16T11:43:03;99652.19;;;13.00;43.51
54718;BME280;40615;40.736;-74.480;2022-12-16T11:45:23;99647.84;;;13.01;43.51
54718;BME280;40615;40.736;-74.480;2022-12-16T11:50:03;99659.97;;;13.02;43.63
54718;BME280;40615;40.736;-74.480;2022-12-16T11:52:23;99668.69;;;13.02;43.87
54718;BME280;40615;40.736;-74.480;2022-12-16T11:54:57;99653.91;;;13.01;43.41
54718;BME280;40615;40.736;-74.480;2022-12-16T11:57:24;99652.88;;;13.04;43.80
54718;BME280;40615;40.736;-74.480;2022-12-16T11:59:44;99658.97;;;13.04;43.82
54718;BME280;40615;40.736;-74.480;2022-12-16T12:02:23;99652.88;;;13.04;43.45
54718;BME280;40615;40.736;-74.480;2022-12-16T12:04:50;99652.81;;;13.05;43.66
54718;BME280;40615;40.736;-74.480;2022-12-16T12:09:35;99650.19;;;13.05;43.73
54718;BME280;40615;40.736;-74.480;2022-12-16T12:12:15;99654.59;;;13.05;43.87
54718;BME280;40615;40.736;-74.480;2022-12-16T12:22:34;99638.69;;;13.09;43.92